createdAt,value
2023-05-22T00:01:51.855Z,100.00
2023-05-22T00:05:58.832Z,100.00
2023-05-22T00:10:01.071Z,100.00
2023-05-22T00:14:03.172Z,100.00
2023-05-22T00:18:06.337Z,100.00
2023-05-22T00:22:09.592Z,100.00
2023-05-22T00:26:16.432Z,100.00
2023-05-22T00:30:18.600Z,100.00
2023-05-22T00:34:20.774Z,100.00
2023-05-22T00:38:34.426Z,100.00
2023-05-22T00:42:36.609Z,100.00
2023-05-22T00:46:38.704Z,100.00
2023-05-22T00:50:41.880Z,100.00
2023-05-22T00:54:44.251Z,100.00
2023-05-22T00:58:46.807Z,100.00
2023-05-22T01:02:49.161Z,100.00
2023-05-22T01:06:51.040Z,100.00
2023-05-22T01:11:22.149Z,100.00
2023-05-22T01:15:43.152Z,100.00
2023-05-22T01:20:09.811Z,100.00
2023-05-22T01:24:32.874Z,100.00
2023-05-22T01:29:07.065Z,100.00
2023-05-22T01:33:12.307Z,100.00
2023-05-22T01:37:15.232Z,100.00
2023-05-22T01:41:17.346Z,100.00
2023-05-22T01:45:21.310Z,100.00
2023-05-22T01:49:23.553Z,100.00
2023-05-22T01:54:06.015Z,100.00
2023-05-22T01:58:24.497Z,100.00
2023-05-22T02:02:28.562Z,100.00
2023-05-22T02:06:33.401Z,100.00
2023-05-22T02:10:37.844Z,100.00
2023-05-22T02:14:42.522Z,100.00
2023-05-22T02:18:45.411Z,100.00
2023-05-22T02:22:48.020Z,100.00
2023-05-22T02:26:50.148Z,100.00
2023-05-22T02:30:52.743Z,100.00
2023-05-22T02:34:54.957Z,100.00
2023-05-22T02:38:57.084Z,100.00
2023-05-22T02:42:59.210Z,100.00
2023-05-22T02:47:02.252Z,100.00
2023-05-22T02:51:04.813Z,100.00
2023-05-22T02:55:08.245Z,100.00
2023-05-22T02:59:10.396Z,100.00
2023-05-22T03:03:12.808Z,100.00
2023-05-22T03:07:17.059Z,100.00
2023-05-22T03:11:18.856Z,100.00
2023-05-22T03:15:21.465Z,100.00
2023-05-22T03:19:26.313Z,100.00
2023-05-22T03:23:28.586Z,100.00
2023-05-22T03:27:30.995Z,100.00
2023-05-22T03:31:33.796Z,100.00
2023-05-22T03:35:48.604Z,100.00
2023-05-22T03:39:50.766Z,100.00
2023-05-22T03:44:00.796Z,100.00
2023-05-22T03:48:02.884Z,100.00
2023-05-22T03:52:05.306Z,100.00
2023-05-22T03:56:07.573Z,100.00
2023-05-22T04:00:10.145Z,100.00
2023-05-22T04:04:16.603Z,100.00
2023-05-22T04:08:18.711Z,100.00
2023-05-22T04:12:20.935Z,100.00
2023-05-22T04:16:24.838Z,100.00
2023-05-22T04:20:27.234Z,100.00
2023-05-22T04:24:29.232Z,100.00
2023-05-22T04:28:34.873Z,100.00
2023-05-22T04:32:37.112Z,100.00
2023-05-22T04:36:39.153Z,100.00
2023-05-22T04:40:41.424Z,100.00
2023-05-22T04:44:43.751Z,100.00
2023-05-22T04:48:47.278Z,100.00
2023-05-22T04:52:51.046Z,100.00
2023-05-22T04:56:53.189Z,100.00
2023-05-22T05:00:57.785Z,100.00
2023-05-22T05:04:59.964Z,100.00
2023-05-22T05:09:02.083Z,100.00
2023-05-22T05:13:04.633Z,100.00
2023-05-22T05:17:11.359Z,100.00
2023-05-22T05:21:15.166Z,100.00
2023-05-22T05:25:18.114Z,100.00
2023-05-22T05:29:20.275Z,100.00
2023-05-22T05:33:37.368Z,100.00
2023-05-22T05:37:59.670Z,100.00
2023-05-22T05:42:03.167Z,100.00
2023-05-22T05:46:06.127Z,100.00
2023-05-22T05:50:09.713Z,100.00
2023-05-22T05:54:13.499Z,100.00
2023-05-22T05:58:15.759Z,100.00
2023-05-22T06:02:28.968Z,100.00
2023-05-22T06:06:36.736Z,100.00
2023-05-22T06:10:50.668Z,100.00
2023-05-22T06:15:08.744Z,100.00
2023-05-22T06:19:12.891Z,100.00
2023-05-22T06:23:15.198Z,100.00
2023-05-22T06:27:17.595Z,100.00
2023-05-22T06:31:20.291Z,100.00
2023-05-22T06:35:24.291Z,100.00
2023-05-22T06:39:26.768Z,100.00
2023-05-22T06:43:41.334Z,100.00
2023-05-22T06:47:47.343Z,100.00
2023-05-22T06:51:49.921Z,100.00
2023-05-22T06:55:52.562Z,100.00
2023-05-22T07:00:12.614Z,100.00
2023-05-22T07:04:32.565Z,100.00
2023-05-22T07:08:48.121Z,100.00
2023-05-22T07:12:50.132Z,97.05
2023-05-22T07:16:52.764Z,100.00
2023-05-22T07:21:01.636Z,100.00
2023-05-22T07:25:04.905Z,81.06
2023-05-22T07:29:08.872Z,81.79
2023-05-22T07:33:11.711Z,100.00
2023-05-22T07:37:14.458Z,88.63
2023-05-22T07:41:19.161Z,100.00
2023-05-22T07:45:21.907Z,88.87
2023-05-22T07:49:26.637Z,74.28
2023-05-22T07:53:28.823Z,63.66
2023-05-22T07:57:36.336Z,61.62
2023-05-22T08:01:46.549Z,67.86
2023-05-22T08:05:48.731Z,69.38
2023-05-22T08:09:51.081Z,59.07
2023-05-22T08:13:53.062Z,61.93
2023-05-22T08:17:55.188Z,57.80
2023-05-22T08:21:58.221Z,62.95
2023-05-22T08:26:00.577Z,62.26
2023-05-22T08:30:04.578Z,62.38
2023-05-22T08:34:07.275Z,63.16
2023-05-22T08:38:09.325Z,74.12
2023-05-22T08:42:11.547Z,66.10
2023-05-22T08:46:16.234Z,54.51
2023-05-22T08:50:19.702Z,61.33
2023-05-22T08:54:23.247Z,61.33
2023-05-22T08:58:26.848Z,57.22
2023-05-22T09:02:28.944Z,60.22
2023-05-22T09:06:31.865Z,52.68
2023-05-22T09:10:35.027Z,46.25
2023-05-22T09:14:41.657Z,49.47
2023-05-22T09:18:44.514Z,45.16
2023-05-22T09:22:47.423Z,52.91
2023-05-22T09:26:52.479Z,55.73
2023-05-22T09:30:55.640Z,49.49
2023-05-22T09:35:04.721Z,56.64
2023-05-22T09:39:07.495Z,51.49
2023-05-22T09:43:10.930Z,56.88
2023-05-22T09:47:13.046Z,67.14
2023-05-22T09:51:16.519Z,54.71
2023-05-22T09:55:21.647Z,50.96
2023-05-22T09:59:30.077Z,48.81
2023-05-22T10:03:34.881Z,51.17
2023-05-22T10:07:44.018Z,55.05
2023-05-22T10:11:47.392Z,63.45
2023-05-22T10:15:50.561Z,59.86
2023-05-22T10:19:54.373Z,53.10
2023-05-22T10:23:57.906Z,54.28
2023-05-22T10:28:00.529Z,51.14
2023-05-22T10:32:40.580Z,47.27
2023-05-22T10:37:13.240Z,60.87
2023-05-22T10:41:19.458Z,65.44
2023-05-22T10:45:21.676Z,57.45
2023-05-22T10:49:24.224Z,52.56
2023-05-22T10:53:28.111Z,51.81
2023-05-22T10:57:35.741Z,52.26
2023-05-22T11:01:40.217Z,49.13
2023-05-22T11:05:56.509Z,52.66
2023-05-22T11:10:01.362Z,52.29
2023-05-22T11:14:04.308Z,75.81
2023-05-22T11:18:06.858Z,62.46
2023-05-22T11:22:09.292Z,56.42
2023-05-22T11:26:19.917Z,51.59
2023-05-22T11:30:26.183Z,52.39
2023-05-22T11:34:28.417Z,49.52
2023-05-22T11:38:30.741Z,44.13
2023-05-22T11:42:33.564Z,52.42
2023-05-22T11:46:35.883Z,45.71
2023-05-22T11:50:42.216Z,56.71
2023-05-22T11:54:47.115Z,46.80
2023-05-22T11:58:49.947Z,42.71
2023-05-22T12:02:52.275Z,49.01
2023-05-22T12:06:55.307Z,43.76
2023-05-22T12:10:57.742Z,52.07
2023-05-22T12:14:59.776Z,54.49
2023-05-22T12:19:09.013Z,51.70
2023-05-22T12:23:12.407Z,51.95
2023-05-22T12:27:15.388Z,55.66
2023-05-22T12:31:22.194Z,60.69
2023-05-22T12:35:25.306Z,46.33
2023-05-22T12:39:28.980Z,46.75
2023-05-22T12:43:31.199Z,62.51
2023-05-22T12:47:33.265Z,44.77
2023-05-22T12:51:35.427Z,47.71
2023-05-22T12:55:38.571Z,45.10
2023-05-22T12:59:40.806Z,49.91
2023-05-22T13:03:43.005Z,41.92
2023-05-22T13:07:45.095Z,48.14
2023-05-22T13:11:48.057Z,48.51
2023-05-22T13:15:50.318Z,51.70
2023-05-22T13:19:54.058Z,46.09
2023-05-22T13:23:56.660Z,45.17
2023-05-22T13:28:02.063Z,48.56
2023-05-22T13:32:04.697Z,41.36
2023-05-22T13:36:07.039Z,43.92
2023-05-22T13:40:09.896Z,41.54
2023-05-22T13:44:12.067Z,45.45
2023-05-22T13:48:14.242Z,49.37
2023-05-22T13:52:16.407Z,41.50
2023-05-22T13:56:18.601Z,51.97
2023-05-22T14:00:21.171Z,50.39
2023-05-22T14:04:23.832Z,48.28
2023-05-22T14:08:25.925Z,43.10
2023-05-22T14:12:28.092Z,48.32
2023-05-22T14:16:30.201Z,56.14
2023-05-22T14:20:32.285Z,47.92
2023-05-22T14:24:34.492Z,45.43
2023-05-22T14:28:36.536Z,51.21
2023-05-22T14:32:38.980Z,47.18
2023-05-22T14:36:41.187Z,49.75
2023-05-22T14:40:43.284Z,57.15
2023-05-22T14:44:45.361Z,47.93
2023-05-22T14:48:47.487Z,46.77
2023-05-22T14:52:49.939Z,45.15
2023-05-22T14:56:52.037Z,48.94
2023-05-22T15:00:54.147Z,48.09
2023-05-22T15:04:56.440Z,44.52
2023-05-22T15:08:58.525Z,50.82
2023-05-22T15:13:00.678Z,49.07
2023-05-22T15:17:02.806Z,53.16
2023-05-22T15:21:04.999Z,50.92
2023-05-22T15:25:15.278Z,51.36
2023-05-22T15:29:18.167Z,48.04
2023-05-22T15:33:21.600Z,48.00
2023-05-22T15:37:23.893Z,47.02
2023-05-22T15:41:26.679Z,41.08
2023-05-22T15:45:28.858Z,40.05
2023-05-22T15:49:31.579Z,47.22
2023-05-22T15:53:33.735Z,44.71
2023-05-22T15:57:35.724Z,43.63
2023-05-22T16:01:37.879Z,44.99
2023-05-22T16:05:40.626Z,48.70
2023-05-22T16:09:43.411Z,51.91
2023-05-22T16:13:45.724Z,51.15
2023-05-22T16:17:47.853Z,50.36
2023-05-22T16:21:50.005Z,46.72
2023-05-22T16:25:52.108Z,47.14
2023-05-22T16:29:54.221Z,49.15
2023-05-22T16:33:56.364Z,48.70
2023-05-22T16:37:58.834Z,48.85
2023-05-22T16:42:01.494Z,48.68
2023-05-22T16:46:04.083Z,49.44
2023-05-22T16:50:07.068Z,55.67
2023-05-22T16:54:09.041Z,48.43
2023-05-22T16:58:12.805Z,47.88
2023-05-22T17:02:15.032Z,53.09
2023-05-22T17:06:20.820Z,54.35
2023-05-22T17:10:23.122Z,55.23
2023-05-22T17:14:26.391Z,54.21
2023-05-22T17:18:28.421Z,55.82
2023-05-22T17:22:30.617Z,57.39
2023-05-22T17:26:34.294Z,56.74
2023-05-22T17:30:36.464Z,59.39
2023-05-22T17:34:38.431Z,59.82
2023-05-22T17:38:40.719Z,58.61
2023-05-22T17:42:42.748Z,64.56
2023-05-22T17:46:44.874Z,67.25
2023-05-22T17:50:47.457Z,87.44
2023-05-22T17:54:49.990Z,91.49
2023-05-22T17:58:52.744Z,87.30
2023-05-22T18:02:54.927Z,100.00
2023-05-22T18:06:57.082Z,100.00
2023-05-22T18:10:59.226Z,100.00
2023-05-22T18:15:01.332Z,100.00
2023-05-22T18:19:04.016Z,100.00
2023-05-22T18:23:06.220Z,100.00
2023-05-22T18:27:08.283Z,100.00
2023-05-22T18:31:10.391Z,100.00
2023-05-22T18:35:12.438Z,100.00
2023-05-22T18:39:14.866Z,100.00
2023-05-22T18:43:17.083Z,100.00
2023-05-22T18:47:19.179Z,100.00
2023-05-22T18:51:22.862Z,100.00
2023-05-22T18:55:24.955Z,100.00
2023-05-22T18:59:27.061Z,100.00
2023-05-22T19:03:29.872Z,100.00
2023-05-22T19:07:32.800Z,100.00
2023-05-22T19:11:36.284Z,100.00
2023-05-22T19:15:38.440Z,100.00
2023-05-22T19:19:41.564Z,100.00
2023-05-22T19:23:45.819Z,100.00
2023-05-22T19:27:48.105Z,100.00
2023-05-22T19:31:50.364Z,100.00
2023-05-22T19:35:53.247Z,100.00
2023-05-22T19:39:55.355Z,100.00
2023-05-22T19:43:57.495Z,100.00
2023-05-22T19:48:00.498Z,100.00
2023-05-22T19:52:04.820Z,100.00
2023-05-22T19:56:06.980Z,100.00
2023-05-22T20:00:11.097Z,100.00
2023-05-22T20:04:14.304Z,100.00
2023-05-22T20:08:16.570Z,100.00
2023-05-22T20:12:18.751Z,100.00
2023-05-22T20:16:21.353Z,100.00
2023-05-22T20:20:26.386Z,100.00
2023-05-22T20:24:28.410Z,100.00
2023-05-22T20:28:31.509Z,100.00
2023-05-22T20:32:34.209Z,100.00
2023-05-22T20:36:36.591Z,100.00
2023-05-22T20:40:38.326Z,100.00
2023-05-22T20:44:41.362Z,100.00
2023-05-22T20:48:46.931Z,100.00
2023-05-22T20:52:49.086Z,100.00
2023-05-22T20:56:52.735Z,100.00
2023-05-22T21:00:54.800Z,100.00
2023-05-22T21:04:56.903Z,100.00
2023-05-22T21:09:01.541Z,100.00
2023-05-22T21:13:03.574Z,100.00
2023-05-22T21:17:06.176Z,100.00
2023-05-22T21:21:08.209Z,100.00
2023-05-22T21:25:10.510Z,100.00
2023-05-22T21:29:12.789Z,100.00
2023-05-22T21:33:14.861Z,100.00
2023-05-22T21:37:17.890Z,100.00
2023-05-22T21:41:19.999Z,100.00
2023-05-22T21:45:22.608Z,100.00
2023-05-22T21:49:24.627Z,100.00
2023-05-22T21:53:26.673Z,100.00
2023-05-22T21:57:28.865Z,100.00
2023-05-22T22:01:30.924Z,100.00
2023-05-22T22:05:33.095Z,100.00
2023-05-22T22:09:35.121Z,100.00
2023-05-22T22:13:37.315Z,100.00
2023-05-22T22:17:40.653Z,100.00
2023-05-22T22:21:42.876Z,100.00
2023-05-22T22:25:44.975Z,100.00
2023-05-22T22:29:47.152Z,100.00
2023-05-22T22:33:49.177Z,100.00
2023-05-22T22:37:51.413Z,100.00
2023-05-22T22:41:53.437Z,100.00
2023-05-22T22:45:55.947Z,100.00
2023-05-22T22:49:58.355Z,100.00
2023-05-22T22:54:00.463Z,100.00
2023-05-22T22:58:02.710Z,100.00
2023-05-22T23:02:05.016Z,100.00
2023-05-22T23:06:07.605Z,100.00
2023-05-22T23:10:09.986Z,100.00
2023-05-22T23:14:13.494Z,100.00
2023-05-22T23:18:15.540Z,100.00
2023-05-22T23:22:18.945Z,100.00
2023-05-22T23:26:21.024Z,100.00
2023-05-22T23:30:23.172Z,100.00
2023-05-22T23:34:25.353Z,100.00
2023-05-22T23:38:27.811Z,100.00
2023-05-22T23:42:29.944Z,100.00
2023-05-22T23:46:32.675Z,100.00
2023-05-22T23:50:34.762Z,100.00
2023-05-22T23:54:36.841Z,100.00
2023-05-22T23:58:39.031Z,100.00
